Time,TemperatureF,DewpointF,PressureIn,WindDirection,WindDirectionDegrees,WindSpeedMPH,WindSpeedGustMPH,Humidity,HourlyPrecipIn,Conditions,Clouds,dailyrainin,SoftwareType,DateUTC
2013-01-30 00:00:00,51.3,49.9,29.35,WSW,245,0.0,0.0,95,0.01,,-RA,0.00,VWS V14.01,2013-01-30 05:00:00,
2013-01-30 00:03:00,51.3,49.9,29.35,WSW,245,0.0,0.0,95,0.01,,-RA,0.00,VWS V14.01,2013-01-30 05:03:00,
2013-01-30 00:06:00,51.3,49.9,29.35,WSW,245,0.0,0.0,95,0.01,,-RA,0.00,VWS V14.01,2013-01-30 05:06:00,
2013-01-30 00:07:00,51.3,49.9,29.35,WSW,245,0.0,0.0,95,0.01,,-RA,0.00,VWS V14.01,2013-01-30 05:07:00,
2013-01-30 00:12:00,51.2,49.8,29.35,WSW,245,0.0,0.0,95,0.01,,-RA,0.00,VWS V14.01,2013-01-30 05:12:00,
2013-01-30 00:17:00,51.1,49.7,29.34,WSW,245,0.0,0.0,95,0.01,,-RA,0.00,VWS V14.01,2013-01-30 05:17:00,
2013-01-30 00:22:00,50.9,49.5,29.34,WSW,245,0.0,0.0,95,0.01,,-RA,0.00,VWS V14.01,2013-01-30 05:22:00,
2013-01-30 00:27:00,50.7,49.3,29.34,WSW,245,0.0,0.0,95,0.01,,-RA,0.00,VWS V14.01,2013-01-30 05:27:00,
2013-01-30 00:32:00,50.6,49.2,29.35,WSW,245,0.0,0.0,95,0.01,,-RA,0.00,VWS V14.01,2013-01-30 05:32:00,
2013-01-30 00:37:00,50.4,49.0,29.35,WSW,245,0.0,0.0,95,0.02,,-RA,0.01,VWS V14.01,2013-01-30 05:37:00,
2013-01-30 00:42:00,50.2,48.8,29.35,WSW,245,0.0,0.0,95,0.02,,-RA,0.01,VWS V14.01,2013-01-30 05:42:00,
2013-01-30 00:47:00,50.1,48.7,29.35,WSW,245,0.0,0.0,95,0.02,,-RA,0.01,VWS V14.01,2013-01-30 05:47:00,
2013-01-30 00:53:00,50.0,48.6,29.35,WSW,245,0.0,0.0,95,0.03,,-RA,0.02,VWS V14.01,2013-01-30 05:53:00,
2013-01-30 00:58:00,49.8,48.4,29.36,WSW,245,0.0,1.0,95,0.03,,-RA,0.02,VWS V14.01,2013-01-30 05:58:00,
2013-01-30 01:03:00,49.7,48.3,29.35,WSW,245,0.0,0.0,95,0.02,,-RA,0.02,VWS V14.01,2013-01-30 06:03:00,
2013-01-30 01:08:00,49.6,48.2,29.34,WSW,245,0.0,0.0,95,0.03,,-RA,0.03,VWS V14.01,2013-01-30 06:08:00,
2013-01-30 01:13:00,49.5,48.1,29.35,WSW,245,0.0,0.0,95,0.04,,-RA,0.04,VWS V14.01,2013-01-30 06:13:00,
2013-01-30 01:18:00,49.4,48.0,29.35,WSW,245,0.0,0.0,95,0.05,,-RA,0.05,VWS V14.01,2013-01-30 06:18:00,
2013-01-30 01:23:00,49.3,47.9,29.35,WSW,245,0.0,0.0,95,0.05,,RA,0.05,VWS V14.01,2013-01-30 06:23:00,
2013-01-30 01:28:00,49.2,47.8,29.34,WSW,245,0.0,0.0,95,0.06,,RA,0.06,VWS V14.01,2013-01-30 06:28:00,
2013-01-30 01:33:00,49.1,47.7,29.34,WSW,245,0.0,0.0,95,0.08,,RA,0.08,VWS V14.01,2013-01-30 06:33:00,
2013-01-30 01:38:00,49.0,47.6,29.34,WSW,245,0.0,0.0,95,0.08,,RA,0.08,VWS V14.01,2013-01-30 06:38:00,
2013-01-30 01:44:00,49.0,47.6,29.33,WSW,245,0.0,0.0,95,0.09,,RA,0.09,VWS V14.01,2013-01-30 06:44:00,
2013-01-30 01:49:00,48.9,47.5,29.33,WSW,245,0.0,0.0,95,0.09,,RA,0.10,VWS V14.01,2013-01-30 06:49:00,
2013-01-30 01:54:00,48.9,47.5,29.33,WSW,245,0.0,0.0,95,0.10,,RA,0.11,VWS V14.01,2013-01-30 06:54:00,
2013-01-30 01:59:00,48.8,47.4,29.32,WSW,245,0.0,0.0,95,0.11,,RA,0.12,VWS V14.01,2013-01-30 06:59:00,
2013-01-30 02:04:00,48.7,47.3,29.32,WSW,245,0.0,0.0,95,0.11,,RA,0.13,VWS V14.01,2013-01-30 07:04:00,
2013-01-30 02:09:00,48.7,47.3,29.31,WSW,245,0.0,0.0,95,0.12,,RA,0.14,VWS V14.01,2013-01-30 07:09:00,
2013-01-30 02:14:00,48.6,47.2,29.31,WSW,245,0.0,0.0,95,0.12,,RA,0.14,VWS V14.01,2013-01-30 07:14:00,
2013-01-30 02:19:00,48.5,47.1,29.32,WSW,245,0.0,0.0,95,0.11,,RA,0.15,VWS V14.01,2013-01-30 07:19:00,
2013-01-30 02:24:00,48.4,47.0,29.32,WSW,245,0.0,0.0,95,0.11,,RA,0.15,VWS V14.01,2013-01-30 07:24:00,
2013-01-30 02:29:00,48.4,47.0,29.31,WSW,245,0.0,0.0,95,0.12,,RA,0.16,VWS V14.01,2013-01-30 07:29:00,
2013-01-30 02:34:00,48.3,46.9,29.31,WSW,245,0.0,0.0,95,0.09,,RA,0.16,VWS V14.01,2013-01-30 07:34:00,
2013-01-30 02:39:00,48.3,46.9,29.31,WSW,245,0.0,0.0,95,0.10,,RA,0.17,VWS V14.01,2013-01-30 07:39:00,
2013-01-30 02:44:00,48.2,46.8,29.31,WSW,245,0.0,0.0,95,0.10,,RA,0.17,VWS V14.01,2013-01-30 07:44:00,
2013-01-30 02:50:00,48.1,46.7,29.30,WSW,245,0.0,0.0,95,0.08,,RA,0.18,VWS V14.01,2013-01-30 07:50:00,
2013-01-30 02:55:00,47.9,46.5,29.29,WSW,245,0.0,0.0,95,0.08,,RA,0.18,VWS V14.01,2013-01-30 07:55:00,
2013-01-30 03:00:00,47.9,46.5,29.30,WSW,245,0.0,0.0,95,0.09,,RA,0.19,VWS V14.01,2013-01-30 08:00:00,
2013-01-30 03:05:00,47.8,46.4,29.29,WSW,245,0.0,0.0,95,0.07,,RA,0.19,VWS V14.01,2013-01-30 08:05:00,
2013-01-30 03:10:00,47.8,46.4,29.28,WSW,245,0.0,0.0,95,0.08,,RA,0.20,VWS V14.01,2013-01-30 08:10:00,
2013-01-30 03:15:00,47.7,46.3,29.28,WSW,245,0.0,0.0,95,0.08,,RA,0.20,VWS V14.01,2013-01-30 08:15:00,
2013-01-30 03:20:00,47.7,46.3,29.27,WSW,245,0.0,0.0,95,0.06,,RA,0.20,VWS V14.01,2013-01-30 08:20:00,
2013-01-30 03:25:00,47.6,46.2,29.26,WSW,245,0.0,0.0,95,0.06,,-RA,0.20,VWS V14.01,2013-01-30 08:25:00,
2013-01-30 03:30:00,47.5,46.1,29.26,WSW,245,0.0,0.0,95,0.07,,-RA,0.21,VWS V14.01,2013-01-30 08:30:00,
2013-01-30 03:35:00,47.5,46.1,29.26,WSW,245,0.0,0.0,95,0.05,,-RA,0.21,VWS V14.01,2013-01-30 08:35:00,
2013-01-30 03:40:00,47.4,46.0,29.27,WSW,245,0.0,0.0,95,0.05,,-RA,0.21,VWS V14.01,2013-01-30 08:40:00,
2013-01-30 03:45:00,47.4,46.0,29.27,WSW,245,0.0,0.0,95,0.04,,-RA,0.22,VWS V14.01,2013-01-30 08:45:00,
2013-01-30 03:50:00,47.4,46.0,29.29,WSW,245,2.0,2.0,95,0.04,,-RA,0.22,VWS V14.01,2013-01-30 08:50:00,
2013-01-30 03:55:00,47.3,45.9,29.30,WSW,245,0.0,0.0,95,0.04,,-RA,0.22,VWS V14.01,2013-01-30 08:55:00,
2013-01-30 04:00:00,47.3,45.9,29.30,WSW,245,0.0,0.0,95,0.04,,-RA,0.23,VWS V14.01,2013-01-30 09:00:00,
2013-01-30 04:06:00,47.4,46.0,29.29,WSW,245,0.0,0.0,95,0.04,,-RA,0.23,VWS V14.01,2013-01-30 09:06:00,
2013-01-30 04:11:00,47.4,46.0,29.28,WSW,245,0.0,0.0,95,0.05,,-RA,0.24,VWS V14.01,2013-01-30 09:11:00,
2013-01-30 04:16:00,47.3,45.9,29.28,WSW,245,0.0,0.0,95,0.05,,RA,0.25,VWS V14.01,2013-01-30 09:16:00,
2013-01-30 04:21:00,47.3,45.9,29.29,WSW,245,0.0,0.0,95,0.06,,RA,0.26,VWS V14.01,2013-01-30 09:21:00,
2013-01-30 04:26:00,47.3,45.9,29.29,WSW,245,0.0,0.0,95,0.06,,RA,0.26,VWS V14.01,2013-01-30 09:26:00,
2013-01-30 04:31:00,47.3,45.9,29.30,WSW,245,0.0,0.0,95,0.06,,RA,0.27,VWS V14.01,2013-01-30 09:31:00,
2013-01-30 04:36:00,47.3,45.9,29.29,WSW,245,0.0,0.0,95,0.06,,RA,0.27,VWS V14.01,2013-01-30 09:36:00,
2013-01-30 04:41:00,47.3,45.9,29.30,WSW,245,0.0,1.0,95,0.06,,RA,0.27,VWS V14.01,2013-01-30 09:41:00,
2013-01-30 04:46:00,47.4,46.0,29.30,WSW,245,0.0,0.0,95,0.05,,RA,0.27,VWS V14.01,2013-01-30 09:46:00,
2013-01-30 04:51:00,47.4,46.0,29.30,WSW,245,0.0,0.0,95,0.05,,RA,0.27,VWS V14.01,2013-01-30 09:51:00,
2013-01-30 04:56:00,47.5,46.1,29.30,WSW,245,0.0,0.0,95,0.06,,RA,0.28,VWS V14.01,2013-01-30 09:56:00,
2013-01-30 05:01:00,47.7,46.3,29.30,WSW,245,0.0,0.0,95,0.05,,RA,0.28,VWS V14.01,2013-01-30 10:01:00,
2013-01-30 05:06:00,47.7,46.3,29.29,WSW,253,3.0,6.0,95,0.05,,RA,0.28,VWS V14.01,2013-01-30 10:06:00,
2013-01-30 05:12:00,47.3,45.9,29.30,WSW,257,4.0,6.0,95,0.05,,RA,0.28,VWS V14.01,2013-01-30 10:12:00,
2013-01-30 05:17:00,46.9,45.5,29.30,WSW,251,0.0,0.0,95,0.03,,RA,0.28,VWS V14.01,2013-01-30 10:17:00,
2013-01-30 05:22:00,46.7,45.3,29.29,WSW,251,0.0,0.0,95,0.03,,RA,0.28,VWS V14.01,2013-01-30 10:22:00,
2013-01-30 05:27:00,46.6,45.2,29.29,WSW,251,0.0,0.0,95,0.03,,RA,0.28,VWS V14.01,2013-01-30 10:27:00,
2013-01-30 05:32:00,46.5,45.2,29.29,WSW,251,0.0,4.0,95,0.03,,-RA,0.29,VWS V14.01,2013-01-30 10:32:00,
2013-01-30 05:37:00,46.4,45.0,29.29,WSW,251,0.0,0.0,95,0.03,,-RA,0.29,VWS V14.01,2013-01-30 10:37:00,
2013-01-30 05:42:00,46.2,44.8,29.28,West,263,0.0,0.0,95,0.03,,-RA,0.29,VWS V14.01,2013-01-30 10:42:00,
2013-01-30 05:47:00,46.0,44.7,29.27,West,263,0.0,0.0,95,0.02,,-RA,0.29,VWS V14.01,2013-01-30 10:47:00,
2013-01-30 05:52:00,45.7,44.3,29.26,West,267,0.0,0.0,95,0.02,,-RA,0.29,VWS V14.01,2013-01-30 10:52:00,
2013-01-30 05:57:00,45.4,44.0,29.25,West,267,0.0,0.0,95,0.02,,-RA,0.29,VWS V14.01,2013-01-30 10:57:00,
2013-01-30 06:02:00,45.2,43.9,29.26,West,267,0.0,0.0,95,0.01,,-RA,0.29,VWS V14.01,2013-01-30 11:02:00,
2013-01-30 06:07:00,44.9,43.6,29.25,West,267,0.0,0.0,95,0.01,,-RA,0.29,VWS V14.01,2013-01-30 11:07:00,
2013-01-30 06:12:00,44.7,43.4,29.24,West,267,0.0,0.0,95,0.01,,-RA,0.29,VWS V14.01,2013-01-30 11:12:00,
2013-01-30 06:17:00,44.6,43.3,29.25,West,267,0.0,0.0,95,0.01,,-RA,0.29,VWS V14.01,2013-01-30 11:17:00,
2013-01-30 06:22:00,44.3,43.0,29.21,NW,311,6.0,6.0,95,0.01,,,0.29,VWS V14.01,2013-01-30 11:22:00,
2013-01-30 06:27:00,43.9,42.6,29.21,NNE,21,3.0,5.0,95,0.01,,,0.29,VWS V14.01,2013-01-30 11:27:00,
2013-01-30 06:32:00,43.7,42.4,29.22,NNE,21,0.0,4.0,95,0.00,,,0.29,VWS V14.01,2013-01-30 11:32:00,
2013-01-30 06:37:00,43.6,42.3,29.23,NNE,21,0.0,0.0,95,0.00,,,0.29,VWS V14.01,2013-01-30 11:37:00,
2013-01-30 06:43:00,43.4,42.1,29.24,NNE,21,0.0,0.0,95,0.00,,,0.29,VWS V14.01,2013-01-30 11:43:00,
2013-01-30 06:48:00,43.3,42.0,29.27,NNE,21,0.0,0.0,95,0.00,,,0.29,VWS V14.01,2013-01-30 11:48:00,
2013-01-30 06:53:00,43.2,41.9,29.27,NNE,21,0.0,0.0,95,0.00,,,0.29,VWS V14.01,2013-01-30 11:53:00,
2013-01-30 06:58:00,43.2,41.9,29.27,NNE,21,0.0,0.0,95,0.00,,,0.29,VWS V14.01,2013-01-30 11:58:00,
2013-01-30 07:03:00,43.1,41.8,29.29,NNE,21,0.0,0.0,95,0.00,,,0.29,VWS V14.01,2013-01-30 12:03:00,
2013-01-30 07:08:00,43.1,41.8,29.27,NNE,21,0.0,0.0,95,0.00,,,0.29,VWS V14.01,2013-01-30 12:08:00,
2013-01-30 07:13:00,43.0,41.7,29.26,NNE,21,0.0,0.0,95,0.00,,,0.29,VWS V14.01,2013-01-30 12:13:00,
2013-01-30 07:18:00,42.9,41.6,29.25,NNE,21,0.0,0.0,95,0.00,,,0.29,VWS V14.01,2013-01-30 12:18:00,
2013-01-30 07:23:00,42.8,41.5,29.25,NNE,21,0.0,0.0,95,0.00,,,0.29,VWS V14.01,2013-01-30 12:23:00,
2013-01-30 07:28:00,42.6,41.3,29.25,NNE,21,0.0,0.0,95,0.00,,,0.29,VWS V14.01,2013-01-30 12:28:00,
2013-01-30 07:33:00,42.5,41.2,29.23,NNE,21,0.0,0.0,95,0.00,,,0.29,VWS V14.01,2013-01-30 12:33:00,
2013-01-30 07:38:00,42.5,41.2,29.23,NNE,21,0.0,0.0,95,0.00,,,0.29,VWS V14.01,2013-01-30 12:38:00,
2013-01-30 07:43:00,42.4,41.1,29.23,NNE,21,0.0,0.0,95,0.00,,,0.29,VWS V14.01,2013-01-30 12:43:00,
2013-01-30 07:49:00,42.3,41.0,29.23,NNE,21,0.0,0.0,95,0.00,,,0.29,VWS V14.01,2013-01-30 12:49:00,
2013-01-30 07:54:00,42.0,40.7,29.24,NW,316,16.0,16.0,95,0.00,,,0.29,VWS V14.01,2013-01-30 12:54:00,
2013-01-30 07:59:00,41.4,40.1,29.25,NW,320,3.0,8.0,95,0.00,,,0.29,VWS V14.01,2013-01-30 12:59:00,
2013-01-30 08:04:00,40.8,39.5,29.25,WNW,286,9.0,10.0,95,0.00,,-RA,0.29,VWS V14.01,2013-01-30 13:04:00,
2013-01-30 08:09:00,40.3,39.0,29.26,WNW,301,7.0,11.0,95,0.01,,-RA,0.30,VWS V14.01,2013-01-30 13:09:00,
2013-01-30 08:14:00,39.9,38.6,29.26,WNW,296,10.0,13.0,95,0.01,,,0.30,VWS V14.01,2013-01-30 13:14:00,
2013-01-30 08:19:00,39.5,38.2,29.26,NNW,327,2.0,10.0,95,0.02,,,0.31,VWS V14.01,2013-01-30 13:19:00,
2013-01-30 08:24:00,39.2,37.9,29.25,North,355,3.0,6.0,95,0.02,,,0.31,VWS V14.01,2013-01-30 13:24:00,
2013-01-30 08:29:00,38.9,37.6,29.24,North,359,6.0,6.0,95,0.03,,,0.32,VWS V14.01,2013-01-30 13:29:00,
2013-01-30 08:34:00,38.7,37.4,29.26,NNW,346,0.0,0.0,95,0.03,,,0.32,VWS V14.01,2013-01-30 13:34:00,
2013-01-30 08:39:00,38.7,37.4,29.26,NNW,346,3.0,5.0,95,0.03,,,0.32,VWS V14.01,2013-01-30 13:39:00,
2013-01-30 08:44:00,38.5,37.2,29.26,NNW,346,4.0,8.0,95,0.03,,,0.32,VWS V14.01,2013-01-30 13:44:00,
2013-01-30 08:49:00,38.5,37.2,29.25,NNW,346,1.0,6.0,95,0.03,,,0.32,VWS V14.01,2013-01-30 13:49:00,
2013-01-30 08:54:00,38.5,37.2,29.26,NNE,12,0.0,4.0,95,0.03,,,0.32,VWS V14.01,2013-01-30 13:54:00,
2013-01-30 08:59:00,38.5,37.2,29.26,NNE,16,3.0,6.0,95,0.03,,,0.32,VWS V14.01,2013-01-30 13:59:00,
2013-01-30 09:04:00,38.6,37.3,29.26,North,1,0.0,0.0,95,0.03,,,0.32,VWS V14.01,2013-01-30 14:04:00,
2013-01-30 09:10:00,38.7,37.4,29.26,North,351,0.0,0.0,95,0.03,,,0.32,VWS V14.01,2013-01-30 14:10:00,
2013-01-30 09:15:00,38.7,37.4,29.27,North,351,0.0,0.0,95,0.03,,,0.32,VWS V14.01,2013-01-30 14:15:00,
2013-01-30 09:20:00,38.7,37.4,29.27,North,357,0.0,0.0,95,0.02,,,0.32,VWS V14.01,2013-01-30 14:20:00,
2013-01-30 09:25:00,38.7,37.4,29.26,NNE,24,0.0,5.0,95,0.02,,,0.32,VWS V14.01,2013-01-30 14:25:00,
2013-01-30 09:30:00,38.7,37.4,29.25,NE,35,4.0,5.0,95,0.02,,,0.32,VWS V14.01,2013-01-30 14:30:00,
2013-01-30 09:35:00,38.6,37.3,29.26,NE,35,0.0,0.0,95,0.00,,,0.32,VWS V14.01,2013-01-30 14:35:00,
2013-01-30 09:40:00,38.5,37.2,29.25,NNE,32,2.0,7.0,95,0.00,,,0.32,VWS V14.01,2013-01-30 14:40:00,
2013-01-30 09:45:00,38.5,37.2,29.25,NNE,28,5.0,8.0,95,0.00,,-RA,0.32,VWS V14.01,2013-01-30 14:45:00,
2013-01-30 09:50:00,38.4,37.1,29.26,NE,45,0.0,0.0,95,0.00,,-RA,0.32,VWS V14.01,2013-01-30 14:50:00,
2013-01-30 09:55:00,38.4,37.1,29.26,NE,45,0.0,0.0,95,0.00,,-RA,0.32,VWS V14.01,2013-01-30 14:55:00,
2013-01-30 10:00:00,38.4,37.1,29.25,NE,50,0.0,0.0,95,0.00,,-RA,0.32,VWS V14.01,2013-01-30 15:00:00,
2013-01-30 10:05:00,38.4,37.1,29.24,NE,51,3.0,5.0,95,0.00,,-RA,0.32,VWS V14.01,2013-01-30 15:05:00,
2013-01-30 10:10:00,38.5,37.2,29.24,ENE,61,0.0,0.0,95,0.00,,-RA,0.32,VWS V14.01,2013-01-30 15:10:00,
2013-01-30 10:15:00,38.5,37.2,29.24,ENE,68,3.0,8.0,95,0.01,,,0.33,VWS V14.01,2013-01-30 15:15:00,
2013-01-30 10:20:00,38.6,37.3,29.25,ENE,64,3.0,5.0,95,0.01,,,0.33,VWS V14.01,2013-01-30 15:20:00,
2013-01-30 10:25:00,38.7,37.4,29.25,ENE,59,0.0,0.0,95,0.01,,,0.33,VWS V14.01,2013-01-30 15:25:00,
2013-01-30 10:30:00,38.7,37.4,29.24,ENE,59,0.0,0.0,95,0.01,,,0.33,VWS V14.01,2013-01-30 15:30:00,
2013-01-30 10:35:00,38.7,37.4,29.24,ENE,58,0.0,2.0,95,0.01,,,0.33,VWS V14.01,2013-01-30 15:35:00,
2013-01-30 10:41:00,38.8,37.5,29.22,ENE,63,0.0,0.0,95,0.02,,,0.34,VWS V14.01,2013-01-30 15:41:00,
2013-01-30 10:46:00,38.8,37.5,29.23,ENE,63,0.0,0.0,95,0.02,,,0.34,VWS V14.01,2013-01-30 15:46:00,
2013-01-30 10:51:00,38.8,37.5,29.23,ENE,63,0.0,0.0,95,0.02,,,0.34,VWS V14.01,2013-01-30 15:51:00,
2013-01-30 10:56:00,38.8,37.5,29.23,ENE,65,1.0,6.0,95,0.02,,,0.34,VWS V14.01,2013-01-30 15:56:00,
2013-01-30 11:01:00,38.8,37.5,29.22,ENE,65,0.0,0.0,95,0.02,,,0.34,VWS V14.01,2013-01-30 16:01:00,
2013-01-30 11:06:00,38.8,37.5,29.23,ENE,65,0.0,0.0,95,0.02,,,0.34,VWS V14.01,2013-01-30 16:06:00,
2013-01-30 11:11:00,38.7,37.4,29.22,ENE,70,0.0,0.0,95,0.02,,,0.34,VWS V14.01,2013-01-30 16:11:00,
2013-01-30 11:16:00,38.7,37.4,29.22,ENE,70,2.0,6.0,95,0.01,,,0.34,VWS V14.01,2013-01-30 16:16:00,
2013-01-30 11:21:00,38.6,37.3,29.21,ENE,70,0.0,0.0,95,0.01,,,0.34,VWS V14.01,2013-01-30 16:21:00,
2013-01-30 11:26:00,38.6,37.3,29.22,ENE,70,0.0,0.0,95,0.01,,,0.34,VWS V14.01,2013-01-30 16:26:00,
2013-01-30 11:31:00,38.6,37.3,29.22,ENE,72,2.0,7.0,95,0.01,,,0.34,VWS V14.01,2013-01-30 16:31:00,
2013-01-30 11:36:00,38.6,37.3,29.22,ENE,74,0.0,0.0,95,0.01,,,0.34,VWS V14.01,2013-01-30 16:36:00,
2013-01-30 11:42:00,38.6,37.3,29.22,ENE,74,0.0,0.0,95,0.02,,,0.35,VWS V14.01,2013-01-30 16:42:00,
2013-01-30 11:47:00,38.7,37.4,29.20,ENE,74,0.0,5.0,95,0.01,,,0.35,VWS V14.01,2013-01-30 16:47:00,
2013-01-30 11:52:00,38.7,37.4,29.19,ENE,70,0.0,0.0,95,0.01,,,0.35,VWS V14.01,2013-01-30 16:52:00,
2013-01-30 11:57:00,38.9,37.6,29.19,ENE,77,0.0,0.0,95,0.01,,,0.35,VWS V14.01,2013-01-30 16:57:00,
2013-01-30 12:02:00,39.0,37.7,29.19,ENE,76,6.0,7.0,95,0.01,,-RA,0.35,VWS V14.01,2013-01-30 17:02:00,
2013-01-30 12:07:00,39.2,37.9,29.19,ENE,76,0.0,0.0,95,0.01,,-RA,0.35,VWS V14.01,2013-01-30 17:07:00,
2013-01-30 12:12:00,39.3,38.0,29.18,ENE,78,0.0,0.0,95,0.01,,-RA,0.35,VWS V14.01,2013-01-30 17:12:00,
2013-01-30 12:17:00,39.6,38.3,29.18,East,81,0.0,0.0,95,0.02,,-RA,0.36,VWS V14.01,2013-01-30 17:17:00,
2013-01-30 12:22:00,39.7,38.4,29.18,East,81,0.0,0.0,95,0.02,,-RA,0.36,VWS V14.01,2013-01-30 17:22:00,
2013-01-30 12:27:00,39.8,38.5,29.18,East,80,5.0,5.0,95,0.02,,-RA,0.36,VWS V14.01,2013-01-30 17:27:00,
2013-01-30 12:32:00,39.8,38.5,29.17,East,84,0.0,0.0,95,0.02,,-RA,0.36,VWS V14.01,2013-01-30 17:32:00,
2013-01-30 12:37:00,39.9,38.6,29.17,East,84,0.0,0.0,95,0.02,,-RA,0.36,VWS V14.01,2013-01-30 17:37:00,
2013-01-30 12:43:00,40.0,38.7,29.16,East,83,0.0,0.0,95,0.03,,-RA,0.37,VWS V14.01,2013-01-30 17:43:00,
2013-01-30 12:48:00,40.1,38.8,29.15,East,83,1.0,6.0,95,0.02,,-RA,0.37,VWS V14.01,2013-01-30 17:48:00,
2013-01-30 12:53:00,40.3,39.0,29.15,East,83,0.0,0.0,95,0.02,,-RA,0.37,VWS V14.01,2013-01-30 17:53:00,
2013-01-30 12:58:00,40.5,39.2,29.13,East,83,0.0,0.0,95,0.02,,-RA,0.37,VWS V14.01,2013-01-30 17:58:00,
2013-01-30 13:03:00,40.6,39.3,29.13,East,83,0.0,0.0,95,0.03,,-RA,0.38,VWS V14.01,2013-01-30 18:03:00,
2013-01-30 13:08:00,40.7,39.4,29.12,East,83,2.0,5.0,95,0.03,,-RA,0.38,VWS V14.01,2013-01-30 18:08:00,
2013-01-30 13:13:00,40.8,39.5,29.12,East,83,0.0,0.0,95,0.03,,-RA,0.38,VWS V14.01,2013-01-30 18:13:00,
2013-01-30 13:18:00,40.9,39.6,29.12,East,83,0.0,0.0,95,0.03,,-RA,0.38,VWS V14.01,2013-01-30 18:18:00,
2013-01-30 13:23:00,41.0,39.7,29.13,East,83,0.0,0.0,95,0.03,,-RA,0.38,VWS V14.01,2013-01-30 18:23:00,
2013-01-30 13:28:00,41.1,39.8,29.13,East,83,0.0,0.0,95,0.03,,-RA,0.38,VWS V14.01,2013-01-30 18:28:00,
2013-01-30 13:33:00,41.2,39.9,29.12,East,83,0.0,0.0,95,0.02,,-RA,0.38,VWS V14.01,2013-01-30 18:33:00,
2013-01-30 13:38:00,41.3,40.0,29.12,East,83,0.0,0.0,95,0.02,,-RA,0.38,VWS V14.01,2013-01-30 18:38:00,
2013-01-30 13:44:00,41.5,40.2,29.11,East,83,0.0,1.0,95,0.02,,,0.38,VWS V14.01,2013-01-30 18:44:00,
2013-01-30 13:49:00,41.6,40.3,29.11,East,83,0.0,0.0,95,0.01,,,0.38,VWS V14.01,2013-01-30 18:49:00,
2013-01-30 13:54:00,42.0,40.7,29.11,East,83,2.0,2.0,95,0.01,,,0.38,VWS V14.01,2013-01-30 18:54:00,
2013-01-30 13:59:00,42.1,40.8,29.11,East,83,0.0,0.0,95,0.01,,,0.38,VWS V14.01,2013-01-30 18:59:00,
2013-01-30 14:04:00,42.3,41.0,29.11,East,83,0.0,0.0,95,0.00,,-RA,0.38,VWS V14.01,2013-01-30 19:04:00,
2013-01-30 14:09:00,42.5,41.2,29.10,East,84,0.0,0.0,95,0.00,,-RA,0.38,VWS V14.01,2013-01-30 19:09:00,
2013-01-30 14:14:00,42.7,41.4,29.10,East,88,0.0,3.0,95,0.00,,-RA,0.38,VWS V14.01,2013-01-30 19:14:00,
2013-01-30 14:19:00,42.9,41.6,29.09,East,88,0.0,0.0,95,0.00,,-RA,0.38,VWS V14.01,2013-01-30 19:19:00,
2013-01-30 14:24:00,43.2,41.9,29.09,SSE,161,3.0,8.0,95,0.01,,-RA,0.39,VWS V14.01,2013-01-30 19:24:00,
2013-01-30 14:29:00,43.8,42.5,29.09,SSE,161,2.0,7.0,95,0.01,,-RA,0.39,VWS V14.01,2013-01-30 19:29:00,
2013-01-30 14:35:00,44.4,43.1,29.08,SSE,164,3.0,5.0,95,0.01,,-RA,0.39,VWS V14.01,2013-01-30 19:35:00,
2013-01-30 14:40:00,44.9,43.6,29.09,SSW,192,5.0,7.0,95,0.01,,-RA,0.39,VWS V14.01,2013-01-30 19:40:00,
2013-01-30 14:45:00,45.6,44.5,29.10,South,191,7.0,9.0,96,0.01,,-RA,0.39,VWS V14.01,2013-01-30 19:45:00,
2013-01-30 14:50:00,46.1,45.0,29.09,South,191,10.0,12.0,96,0.01,,-RA,0.39,VWS V14.01,2013-01-30 19:50:00,
2013-01-30 14:55:00,46.4,45.3,29.08,SSW,200,8.0,11.0,96,0.01,,-RA,0.39,VWS V14.01,2013-01-30 19:55:00,
2013-01-30 15:00:00,46.6,45.5,29.07,SSW,197,7.0,18.0,96,0.01,,-RA,0.39,VWS V14.01,2013-01-30 20:00:00,
2013-01-30 15:05:00,46.8,45.7,29.08,South,189,9.0,11.0,96,0.02,,-RA,0.40,VWS V14.01,2013-01-30 20:05:00,
2013-01-30 15:10:00,46.7,45.6,29.07,WSW,240,3.0,9.0,96,0.02,,-RA,0.40,VWS V14.01,2013-01-30 20:10:00,
2013-01-30 15:15:00,46.4,45.0,29.08,SW,229,23.0,25.0,95,0.02,,-RA,0.40,VWS V14.01,2013-01-30 20:15:00,
2013-01-30 15:20:00,46.1,44.8,29.08,SW,234,1.0,14.0,95,0.02,,-RA,0.40,VWS V14.01,2013-01-30 20:20:00,
2013-01-30 15:25:00,45.8,44.5,29.09,SSW,208,6.0,7.0,95,0.02,,-RA,0.40,VWS V14.01,2013-01-30 20:25:00,
2013-01-30 15:30:00,45.5,44.4,29.09,SSW,201,4.0,4.0,96,0.02,,-RA,0.40,VWS V14.01,2013-01-30 20:30:00,
2013-01-30 15:35:00,45.0,43.7,29.10,South,181,6.0,12.0,95,0.01,,-RA,0.40,VWS V14.01,2013-01-30 20:35:00,
2013-01-30 15:40:00,44.4,43.1,29.09,SW,225,2.0,2.0,95,0.01,,-RA,0.40,VWS V14.01,2013-01-30 20:40:00,
2013-01-30 15:45:00,43.9,42.6,29.09,SW,231,12.0,14.0,95,0.01,,-RA,0.40,VWS V14.01,2013-01-30 20:45:00,
2013-01-30 15:50:00,43.3,42.0,29.08,SW,222,2.0,11.0,95,0.01,,-RA,0.40,VWS V14.01,2013-01-30 20:50:00,
2013-01-30 15:55:00,43.0,41.7,29.08,SW,219,9.0,15.0,95,0.01,,-RA,0.40,VWS V14.01,2013-01-30 20:55:00,
2013-01-30 16:00:00,42.7,41.4,29.09,WSW,242,1.0,12.0,95,0.01,,-RA,0.40,VWS V14.01,2013-01-30 21:00:00,
2013-01-30 16:05:00,42.5,41.2,29.09,SSW,207,1.0,3.0,95,0.01,,OVC060,0.40,VWS V14.01,2013-01-30 21:05:00,
2013-01-30 16:10:00,42.2,40.9,29.09,SW,232,0.0,3.0,95,0.01,,OVC060,0.40,VWS V14.01,2013-01-30 21:10:00,
2013-01-30 16:15:00,41.8,40.5,29.09,SW,221,1.0,2.0,95,0.00,,OVC060,0.40,VWS V14.01,2013-01-30 21:15:00,
2013-01-30 16:20:00,41.6,40.3,29.08,WSW,240,0.0,1.0,95,0.00,,OVC060,0.40,VWS V14.01,2013-01-30 21:20:00,
2013-01-30 16:26:00,41.4,40.1,29.08,South,191,7.0,16.0,95,0.00,,OVC060,0.40,VWS V14.01,2013-01-30 21:26:00,
2013-01-30 16:31:00,41.2,39.9,29.08,WSW,237,0.0,11.0,95,0.00,,OVC060,0.40,VWS V14.01,2013-01-30 21:31:00,
2013-01-30 16:36:00,41.0,39.7,29.08,SSW,193,0.0,1.0,95,0.00,,OVC060,0.40,VWS V14.01,2013-01-30 21:36:00,
2013-01-30 16:41:00,40.8,39.5,29.09,SSW,204,1.0,1.0,95,0.00,,OVC043,0.40,VWS V14.01,2013-01-30 21:41:00,
2013-01-30 16:46:00,40.7,39.4,29.09,SW,215,1.0,10.0,95,0.00,,OVC043,0.40,VWS V14.01,2013-01-30 21:46:00,
2013-01-30 16:51:00,40.5,39.2,29.10,SW,218,12.0,12.0,95,0.00,,OVC043,0.40,VWS V14.01,2013-01-30 21:51:00,
2013-01-30 16:56:00,40.4,39.1,29.10,SW,221,0.0,0.0,95,0.00,,OVC043,0.40,VWS V14.01,2013-01-30 21:56:00,
2013-01-30 17:01:00,40.2,38.9,29.10,SW,215,12.0,12.0,95,0.00,,OVC043,0.40,VWS V14.01,2013-01-30 22:01:00,
2013-01-30 17:06:00,40.0,38.7,29.11,SW,231,1.0,11.0,95,0.00,,OVC043,0.40,VWS V14.01,2013-01-30 22:06:00,
2013-01-30 17:11:00,39.4,38.1,29.10,WSW,247,7.0,15.0,95,0.00,,,0.40,VWS V14.01,2013-01-30 22:11:00,
2013-01-30 17:16:00,38.8,37.5,29.10,WSW,238,10.0,11.0,95,0.00,,,0.40,VWS V14.01,2013-01-30 22:16:00,
2013-01-30 17:21:00,38.4,37.1,29.10,West,265,1.0,1.0,95,0.00,,,0.40,VWS V14.01,2013-01-30 22:21:00,
2013-01-30 17:27:00,38.2,36.9,29.11,WSW,251,9.0,17.0,95,0.00,,,0.40,VWS V14.01,2013-01-30 22:27:00,
2013-01-30 17:32:00,37.8,36.5,29.11,WSW,257,15.0,19.0,95,0.00,,,0.40,VWS V14.01,2013-01-30 22:32:00,
2013-01-30 17:37:00,37.3,36.0,29.11,WSW,251,1.0,12.0,95,0.00,,,0.40,VWS V14.01,2013-01-30 22:37:00,
2013-01-30 17:42:00,37.0,35.7,29.12,West,261,16.0,16.0,95,0.00,,,0.40,VWS V14.01,2013-01-30 22:42:00,
2013-01-30 17:47:00,36.5,34.9,29.13,WSW,240,4.0,11.0,94,0.00,,,0.40,VWS V14.01,2013-01-30 22:47:00,
2013-01-30 17:52:00,36.2,34.9,29.13,WSW,238,0.0,12.0,95,0.00,,,0.40,VWS V14.01,2013-01-30 22:52:00,
2013-01-30 17:57:00,36.1,34.8,29.13,WSW,243,12.0,13.0,95,0.00,,,0.40,VWS V14.01,2013-01-30 22:57:00,
2013-01-30 18:02:00,35.8,34.2,29.13,SW,236,3.0,11.0,94,0.00,,,0.40,VWS V14.01,2013-01-30 23:02:00,
2013-01-30 18:07:00,35.8,34.2,29.12,West,259,1.0,10.0,94,0.00,,,0.40,VWS V14.01,2013-01-30 23:07:00,
2013-01-30 18:12:00,35.8,34.2,29.12,WSW,253,1.0,12.0,94,0.00,,,0.40,VWS V14.01,2013-01-30 23:12:00,
2013-01-30 18:17:00,35.7,34.4,29.13,West,277,9.0,13.0,95,0.00,,,0.40,VWS V14.01,2013-01-30 23:17:00,
2013-01-30 18:22:00,35.7,34.4,29.13,West,271,7.0,12.0,95,0.00,,OVC011,0.40,VWS V14.01,2013-01-30 23:22:00,
2013-01-30 18:27:00,35.6,34.3,29.12,WNW,288,11.0,14.0,95,0.00,,OVC011,0.40,VWS V14.01,2013-01-30 23:27:00,
2013-01-30 18:32:00,35.4,33.8,29.12,WNW,285,10.0,17.0,94,0.00,,OVC011,0.40,VWS V14.01,2013-01-30 23:32:00,
2013-01-30 18:37:00,35.1,33.5,29.12,WNW,290,9.0,14.0,94,0.00,,OVC011,0.40,VWS V14.01,2013-01-30 23:37:00,
2013-01-30 18:42:00,34.8,33.2,29.12,NW,313,0.0,13.0,94,0.00,,OVC011,0.40,VWS V14.01,2013-01-30 23:42:00,
2013-01-30 18:47:00,34.6,33.0,29.12,WNW,287,7.0,10.0,94,0.00,,OVC011,0.40,VWS V14.01,2013-01-30 23:47:00,
2013-01-30 18:52:00,34.4,32.9,29.13,WNW,296,0.0,1.0,94,0.00,,OVC011,0.40,VWS V14.01,2013-01-30 23:52:00,
2013-01-30 18:57:00,34.3,32.8,29.14,WNW,303,9.0,14.0,94,0.00,,OVC011,0.40,VWS V14.01,2013-01-30 23:57:00,
2013-01-30 19:02:00,34.0,32.5,29.15,WNW,299,8.0,13.0,94,0.00,,OVC011,0.40,VWS V14.01,2013-01-31 00:02:00,
2013-01-30 19:07:00,33.9,32.4,29.15,WNW,290,8.0,16.0,94,0.00,,OVC011,0.40,VWS V14.01,2013-01-31 00:07:00,
2013-01-30 19:12:00,33.7,32.2,29.16,West,274,13.0,18.0,94,0.00,,OVC011,0.40,VWS V14.01,2013-01-31 00:12:00,
2013-01-30 19:17:00,33.5,32.0,29.16,NW,309,6.0,15.0,94,0.00,,OVC011,0.40,VWS V14.01,2013-01-31 00:17:00,
2013-01-30 19:22:00,33.4,31.9,29.16,NW,322,11.0,11.0,94,0.00,,OVC018,0.40,VWS V14.01,2013-01-31 00:22:00,
2013-01-30 19:28:00,33.4,31.9,29.16,NW,306,0.0,1.0,94,0.00,,OVC018,0.40,VWS V14.01,2013-01-31 00:28:00,
2013-01-30 19:33:00,33.4,31.9,29.16,West,267,0.0,7.0,94,0.00,,OVC018,0.40,VWS V14.01,2013-01-31 00:33:00,
2013-01-30 19:38:00,33.4,31.9,29.17,West,268,8.0,11.0,94,0.00,,OVC018,0.40,VWS V14.01,2013-01-31 00:38:00,
2013-01-30 19:43:00,33.3,31.8,29.18,West,269,14.0,14.0,94,0.00,,OVC018,0.40,VWS V14.01,2013-01-31 00:43:00,
2013-01-30 19:48:00,33.1,31.6,29.18,West,266,11.0,11.0,94,0.00,,OVC018,0.40,VWS V14.01,2013-01-31 00:48:00,
2013-01-30 19:53:00,32.9,31.4,29.18,WNW,284,0.0,13.0,94,0.00,,OVC015,0.40,VWS V14.01,2013-01-31 00:53:00,
2013-01-30 19:58:00,32.7,31.2,29.19,WNW,284,9.0,10.0,94,0.00,,OVC012,0.40,VWS V14.01,2013-01-31 00:58:00,
2013-01-30 20:03:00,32.4,30.9,29.19,NW,311,14.0,20.0,94,0.00,,OVC012,0.40,VWS V14.01,2013-01-31 01:03:00,
2013-01-30 20:08:00,32.2,30.7,29.19,WNW,296,6.0,14.0,94,0.00,,OVC012,0.40,VWS V14.01,2013-01-31 01:08:00,
2013-01-30 20:13:00,32.1,30.3,29.20,West,278,12.0,12.0,93,0.00,,OVC012,0.40,VWS V14.01,2013-01-31 01:13:00,
2013-01-30 20:18:00,32.0,30.2,29.20,West,267,13.0,17.0,93,0.00,,OVC012,0.40,VWS V14.01,2013-01-31 01:18:00,
2013-01-30 20:23:00,31.9,30.1,29.20,West,279,11.0,14.0,93,0.00,,OVC014,0.40,VWS V14.01,2013-01-31 01:23:00,
2013-01-30 20:28:00,31.7,29.9,29.20,West,263,11.0,14.0,93,0.00,,OVC014,0.40,VWS V14.01,2013-01-31 01:28:00,
2013-01-30 20:33:00,31.6,29.8,29.21,WNW,292,9.0,15.0,93,0.00,,OVC014,0.40,VWS V14.01,2013-01-31 01:33:00,
2013-01-30 20:38:00,31.4,29.6,29.21,West,277,7.0,11.0,93,0.00,,OVC014,0.40,VWS V14.01,2013-01-31 01:38:00,
2013-01-30 20:43:00,31.1,29.3,29.21,WNW,287,21.0,23.0,93,0.00,,OVC014,0.40,VWS V14.01,2013-01-31 01:43:00,
2013-01-30 20:48:00,30.7,28.9,29.22,WNW,298,22.0,24.0,93,0.00,,OVC014,0.40,VWS V14.01,2013-01-31 01:48:00,
2013-01-30 20:54:00,30.2,28.4,29.22,WNW,297,11.0,24.0,93,0.00,,OVC014,0.40,VWS V14.01,2013-01-31 01:54:00,
2013-01-30 20:59:00,29.9,28.1,29.22,West,266,9.0,21.0,93,0.00,,OVC014,0.40,VWS V14.01,2013-01-31 01:59:00,
2013-01-30 21:04:00,29.7,27.9,29.22,WNW,287,16.0,21.0,93,0.00,,OVC014,0.40,VWS V14.01,2013-01-31 02:04:00,
2013-01-30 21:09:00,29.4,27.6,29.23,West,260,14.0,20.0,93,0.00,,OVC014,0.40,VWS V14.01,2013-01-31 02:09:00,
2013-01-30 21:14:00,29.2,27.2,29.23,WSW,251,13.0,22.0,92,0.00,,OVC014,0.40,VWS V14.01,2013-01-31 02:14:00,
2013-01-30 21:19:00,28.9,26.9,29.24,West,279,14.0,17.0,92,0.00,,OVC014,0.40,VWS V14.01,2013-01-31 02:19:00,
2013-01-30 21:24:00,28.6,26.6,29.24,WNW,282,13.0,16.0,92,0.00,,,0.40,VWS V14.01,2013-01-31 02:24:00,
2013-01-30 21:29:00,28.4,26.4,29.24,West,274,16.0,24.0,92,0.00,,,0.40,VWS V14.01,2013-01-31 02:29:00,
2013-01-30 21:34:00,28.2,26.2,29.24,WNW,295,13.0,20.0,92,0.00,,,0.40,VWS V14.01,2013-01-31 02:34:00,
2013-01-30 21:39:00,28.0,26.0,29.25,West,269,6.0,17.0,92,0.00,,,0.40,VWS V14.01,2013-01-31 02:39:00,
2013-01-30 21:44:00,27.8,25.8,29.25,WNW,288,9.0,26.0,92,0.00,,,0.40,VWS V14.01,2013-01-31 02:44:00,
2013-01-30 21:49:00,27.7,25.7,29.25,WNW,296,14.0,17.0,92,0.00,,,0.40,VWS V14.01,2013-01-31 02:49:00,
2013-01-30 21:54:00,27.6,25.3,29.26,West,275,13.0,21.0,91,0.00,,,0.40,VWS V14.01,2013-01-31 02:54:00,
2013-01-30 21:59:00,27.4,25.1,29.27,WNW,283,12.0,16.0,91,0.00,,,0.40,VWS V14.01,2013-01-31 02:59:00,
2013-01-30 22:04:00,27.3,25.0,29.27,WNW,296,9.0,13.0,91,0.00,,,0.40,VWS V14.01,2013-01-31 03:04:00,
2013-01-30 22:09:00,27.2,24.9,29.27,WNW,297,13.0,20.0,91,0.00,,,0.40,VWS V14.01,2013-01-31 03:09:00,
2013-01-30 22:14:00,27.1,24.8,29.27,WSW,255,13.0,16.0,91,0.00,,,0.40,VWS V14.01,2013-01-31 03:14:00,
2013-01-30 22:19:00,26.8,24.5,29.28,WSW,257,12.0,18.0,91,0.00,,,0.40,VWS V14.01,2013-01-31 03:19:00,
2013-01-30 22:24:00,26.6,24.3,29.28,West,264,4.0,10.0,91,0.00,,,0.40,VWS V14.01,2013-01-31 03:24:00,
2013-01-30 22:29:00,26.4,24.1,29.29,West,263,14.0,18.0,91,0.00,,,0.40,VWS V14.01,2013-01-31 03:29:00,
2013-01-30 22:34:00,26.2,23.9,29.29,WSW,257,10.0,13.0,91,0.00,,,0.40,VWS V14.01,2013-01-31 03:34:00,
2013-01-30 22:39:00,26.1,23.8,29.29,WNW,286,10.0,11.0,91,0.00,,,0.40,VWS V14.01,2013-01-31 03:39:00,
2013-01-30 22:44:00,26.1,23.8,29.29,West,267,10.0,12.0,91,0.00,,,0.40,VWS V14.01,2013-01-31 03:44:00,
2013-01-30 22:50:00,26.0,23.7,29.30,West,265,15.0,20.0,91,0.00,,,0.40,VWS V14.01,2013-01-31 03:50:00,
2013-01-30 22:55:00,25.7,23.2,29.30,West,275,5.0,20.0,90,0.00,,,0.40,VWS V14.01,2013-01-31 03:55:00,
2013-01-30 23:00:00,25.4,22.9,29.31,WNW,292,14.0,20.0,90,0.00,,,0.40,VWS V14.01,2013-01-31 04:00:00,
2013-01-30 23:05:00,25.3,22.8,29.31,NW,313,10.0,15.0,90,0.00,,,0.40,VWS V14.01,2013-01-31 04:05:00,
2013-01-30 23:10:00,25.3,22.8,29.31,WNW,284,11.0,13.0,90,0.00,,,0.40,VWS V14.01,2013-01-31 04:10:00,
2013-01-30 23:15:00,25.3,22.8,29.32,WNW,286,5.0,15.0,90,0.00,,,0.40,VWS V14.01,2013-01-31 04:15:00,
2013-01-30 23:20:00,25.3,22.8,29.32,West,278,11.0,17.0,90,0.00,,,0.40,VWS V14.01,2013-01-31 04:20:00,
2013-01-30 23:25:00,25.2,22.7,29.32,West,263,6.0,20.0,90,0.00,,,0.40,VWS V14.01,2013-01-31 04:25:00,
2013-01-30 23:30:00,25.1,22.6,29.33,NW,317,7.0,11.0,90,0.00,,,0.40,VWS V14.01,2013-01-31 04:30:00,
2013-01-30 23:35:00,24.9,22.4,29.33,West,272,11.0,11.0,90,0.00,,,0.40,VWS V14.01,2013-01-31 04:35:00,
2013-01-30 23:40:00,24.9,22.4,29.34,West,264,11.0,14.0,90,0.00,,,0.40,VWS V14.01,2013-01-31 04:40:00,
2013-01-30 23:45:00,24.9,22.4,29.34,WNW,286,10.0,11.0,90,0.00,,,0.40,VWS V14.01,2013-01-31 04:45:00,
2013-01-30 23:50:00,24.9,22.4,29.34,WNW,293,8.0,17.0,90,0.00,,,0.40,VWS V14.01,2013-01-31 04:50:00,
2013-01-30 23:55:00,24.8,22.3,29.35,West,270,19.0,21.0,90,0.00,,,0.40,VWS V14.01,2013-01-31 04:55:00,